createdAt,value
2018-03-17T00:00:35.584Z,5.14
2018-03-17T00:03:02.994Z,5.12
2018-03-17T00:05:30.409Z,5.12
2018-03-17T00:07:57.815Z,5.10
2018-03-17T00:10:25.220Z,4.97
2018-03-17T00:12:52.642Z,4.83
2018-03-17T00:15:20.046Z,4.76
2018-03-17T00:17:47.455Z,4.68
2018-03-17T00:20:14.872Z,4.64
2018-03-17T00:22:42.274Z,4.70
2018-03-17T00:25:09.679Z,4.74
2018-03-17T00:27:37.086Z,4.79
2018-03-17T00:30:04.486Z,4.83
2018-03-17T00:32:31.945Z,4.87
2018-03-17T00:34:59.306Z,4.96
2018-03-17T00:37:26.723Z,5.08
2018-03-17T00:39:54.131Z,5.20
2018-03-17T00:42:21.544Z,5.23
2018-03-17T00:44:48.954Z,5.30
2018-03-17T00:47:16.378Z,5.28
2018-03-17T00:49:43.782Z,5.45
2018-03-17T00:52:11.200Z,5.59
2018-03-17T00:54:38.611Z,5.56
2018-03-17T00:57:06.030Z,5.58
2018-03-17T00:59:33.436Z,5.70
2018-03-17T01:02:00.887Z,5.68
2018-03-17T01:04:28.271Z,5.77
2018-03-17T01:06:55.693Z,5.66
2018-03-17T01:09:23.089Z,5.50
2018-03-17T01:11:50.508Z,5.42
2018-03-17T01:14:17.915Z,5.46
2018-03-17T01:16:45.337Z,5.55
2018-03-17T01:19:12.746Z,5.61
2018-03-17T01:21:40.175Z,5.59
2018-03-17T01:24:07.578Z,5.64
2018-03-17T01:26:34.982Z,5.69
2018-03-17T01:29:02.405Z,5.74
2018-03-17T01:31:29.824Z,5.68
2018-03-17T01:33:57.240Z,5.72
2018-03-17T01:36:24.659Z,5.77
2018-03-17T01:38:52.068Z,5.81
2018-03-17T01:41:19.484Z,5.80
2018-03-17T01:43:46.927Z,5.83
2018-03-17T01:46:14.326Z,5.62
2018-03-17T01:48:41.742Z,5.57
2018-03-17T01:51:09.152Z,5.46
2018-03-17T01:53:36.579Z,5.38
2018-03-17T01:56:03.977Z,5.39
2018-03-17T01:58:31.394Z,5.34
2018-03-17T02:00:58.798Z,5.35
2018-03-17T02:03:26.214Z,5.34
2018-03-17T02:05:53.619Z,5.38
2018-03-17T02:08:21.025Z,5.20
2018-03-17T02:10:48.442Z,5.19
2018-03-17T02:13:15.863Z,5.07
2018-03-17T02:15:43.261Z,4.97
2018-03-17T02:18:10.682Z,4.95
2018-03-17T02:20:38.096Z,4.95
2018-03-17T02:23:05.513Z,4.84
2018-03-17T02:25:32.921Z,4.62
2018-03-17T02:28:00.333Z,4.69
2018-03-17T02:30:27.744Z,4.53
2018-03-17T02:32:55.159Z,4.53
2018-03-17T02:35:22.563Z,4.45
2018-03-17T02:37:49.974Z,4.26
2018-03-17T02:40:17.392Z,4.17
2018-03-17T02:42:44.810Z,4.03
2018-03-17T02:45:12.228Z,4.02
2018-03-17T02:47:39.643Z,3.90
2018-03-17T02:50:07.058Z,3.84
2018-03-17T02:52:34.517Z,3.89
2018-03-17T02:55:01.888Z,3.81
2018-03-17T02:57:29.295Z,3.72
2018-03-17T02:59:56.710Z,3.68
2018-03-17T03:02:24.114Z,3.58
2018-03-17T03:04:51.525Z,3.61
2018-03-17T03:07:18.936Z,3.64
2018-03-17T03:09:46.378Z,3.56
2018-03-17T03:12:13.761Z,3.54
2018-03-17T03:14:41.178Z,3.51
2018-03-17T03:17:08.582Z,3.48
2018-03-17T03:19:35.991Z,3.43
2018-03-17T03:22:03.391Z,3.39
2018-03-17T03:24:30.796Z,3.33
2018-03-17T03:26:58.209Z,3.29
2018-03-17T03:29:25.625Z,3.20
2018-03-17T03:31:53.029Z,3.19
2018-03-17T03:34:20.433Z,3.07
2018-03-17T03:36:47.849Z,3.10
2018-03-17T03:39:15.250Z,3.17
2018-03-17T03:41:42.694Z,3.09
2018-03-17T03:44:10.098Z,3.08
2018-03-17T03:46:37.514Z,2.97
2018-03-17T03:49:04.922Z,2.91
2018-03-17T03:51:32.328Z,2.82
2018-03-17T03:53:59.748Z,2.94
2018-03-17T03:56:27.169Z,2.87
2018-03-17T03:58:54.578Z,2.85
2018-03-17T04:01:22.006Z,2.87
2018-03-17T04:03:49.414Z,2.87
2018-03-17T04:06:16.838Z,2.80
2018-03-17T04:08:44.253Z,2.67
2018-03-17T04:11:11.666Z,2.63
2018-03-17T04:13:39.078Z,2.71
2018-03-17T04:16:06.508Z,2.59
2018-03-17T04:18:33.907Z,2.58
2018-03-17T04:21:01.324Z,2.54
2018-03-17T04:23:28.735Z,2.58
2018-03-17T04:25:56.141Z,2.54
2018-03-17T04:28:23.555Z,2.52
2018-03-17T04:30:50.969Z,2.52
2018-03-17T04:33:18.377Z,2.46
2018-03-17T04:35:45.790Z,2.47
2018-03-17T04:38:13.204Z,2.37
2018-03-17T04:40:40.623Z,2.41
2018-03-17T04:43:08.030Z,2.36
2018-03-17T04:45:35.450Z,2.48
2018-03-17T04:48:02.864Z,2.31
2018-03-17T04:50:30.274Z,2.25
2018-03-17T04:52:57.686Z,2.24
2018-03-17T04:55:25.094Z,2.33
2018-03-17T04:57:52.505Z,2.24
2018-03-17T05:00:19.909Z,2.18
2018-03-17T05:02:47.342Z,2.13
2018-03-17T05:05:14.737Z,2.15
2018-03-17T05:07:42.154Z,2.17
2018-03-17T05:10:09.560Z,2.02
2018-03-17T05:12:36.973Z,2.03
2018-03-17T05:15:05.301Z,1.99
2018-03-17T05:17:32.713Z,1.94
2018-03-17T05:20:00.110Z,2.00
2018-03-17T05:22:27.790Z,1.85
2018-03-17T05:24:55.202Z,1.74
2018-03-17T05:27:22.630Z,1.60
2018-03-17T05:29:50.034Z,1.66
2018-03-17T05:32:17.832Z,1.52
2018-03-17T05:34:45.237Z,1.58
2018-03-17T05:37:12.658Z,1.52
2018-03-17T05:39:40.064Z,1.55
2018-03-17T05:42:07.474Z,1.53
2018-03-17T05:44:34.878Z,1.60
2018-03-17T05:47:02.311Z,1.54
2018-03-17T05:49:29.731Z,1.65
2018-03-17T05:51:57.141Z,1.58
2018-03-17T05:54:24.559Z,1.57
2018-03-17T05:56:51.966Z,1.53
2018-03-17T05:59:19.394Z,1.36
2018-03-17T06:01:46.799Z,1.38
2018-03-17T06:04:14.218Z,1.29
2018-03-17T06:06:41.623Z,1.38
2018-03-17T06:09:09.034Z,1.36
2018-03-17T06:11:36.442Z,1.46
2018-03-17T06:14:03.923Z,1.29
2018-03-17T06:16:31.268Z,1.33
2018-03-17T06:18:58.686Z,1.28
2018-03-17T06:21:26.182Z,1.32
2018-03-17T06:23:53.667Z,1.33
2018-03-17T06:26:21.074Z,1.33
2018-03-17T06:28:48.491Z,1.25
2018-03-17T06:31:15.908Z,1.26
2018-03-17T06:33:43.301Z,1.25
2018-03-17T06:36:10.740Z,1.22
2018-03-17T06:38:38.150Z,1.22
2018-03-17T06:41:05.554Z,1.26
2018-03-17T06:43:32.966Z,1.28
2018-03-17T06:46:00.377Z,1.26
2018-03-17T06:48:27.832Z,1.28
2018-03-17T06:50:55.248Z,1.24
2018-03-17T06:53:22.687Z,1.18
2018-03-17T06:55:50.153Z,1.18
2018-03-17T06:58:17.722Z,1.09
2018-03-17T07:00:45.135Z,1.18
2018-03-17T07:03:12.544Z,1.14
2018-03-17T07:05:39.950Z,1.13
2018-03-17T07:08:07.354Z,1.09
2018-03-17T07:10:34.767Z,1.10
2018-03-17T07:13:02.182Z,1.17
2018-03-17T07:15:29.596Z,1.12
2018-03-17T07:17:56.990Z,1.15
2018-03-17T07:20:24.402Z,1.15
2018-03-17T07:22:51.972Z,1.15
2018-03-17T07:25:20.315Z,1.19
2018-03-17T07:27:47.679Z,1.16
2018-03-17T07:30:15.099Z,1.27
2018-03-17T07:32:42.507Z,1.20
2018-03-17T07:35:10.008Z,1.15
2018-03-17T07:37:37.420Z,1.14
2018-03-17T07:40:04.832Z,1.14
2018-03-17T07:42:32.286Z,1.24
2018-03-17T07:44:59.703Z,1.18
2018-03-17T07:47:27.116Z,1.18
2018-03-17T07:49:54.527Z,1.27
2018-03-17T07:52:21.940Z,1.24
2018-03-17T07:54:49.363Z,1.22
2018-03-17T07:57:16.770Z,1.28
2018-03-17T07:59:44.182Z,1.34
2018-03-17T08:02:11.586Z,1.29
2018-03-17T08:04:38.991Z,1.22
2018-03-17T08:07:06.407Z,1.22
2018-03-17T08:09:33.849Z,1.30
2018-03-17T08:12:01.410Z,1.21
2018-03-17T08:14:28.831Z,1.30
2018-03-17T08:16:56.243Z,1.38
2018-03-17T08:19:23.648Z,1.39
2018-03-17T08:21:51.074Z,1.34
2018-03-17T08:24:18.468Z,1.48
2018-03-17T08:26:45.878Z,1.49
2018-03-17T08:29:13.285Z,1.53
2018-03-17T08:31:40.707Z,1.59
2018-03-17T08:34:08.151Z,1.55
2018-03-17T08:36:35.555Z,1.54
2018-03-17T08:39:02.950Z,1.54
2018-03-17T08:41:30.364Z,1.52
2018-03-17T08:43:57.767Z,1.49
2018-03-17T08:46:25.188Z,1.39
2018-03-17T08:48:52.601Z,1.46
2018-03-17T08:51:20.270Z,1.46
2018-03-17T08:53:47.681Z,1.47
2018-03-17T08:56:15.090Z,1.48
2018-03-17T08:58:42.499Z,1.40
2018-03-17T09:01:09.914Z,1.38
2018-03-17T09:03:37.318Z,1.40
2018-03-17T09:06:04.750Z,1.39
2018-03-17T09:08:32.157Z,1.59
2018-03-17T09:10:59.567Z,1.58
2018-03-17T09:13:27.003Z,1.66
2018-03-17T09:15:54.412Z,1.74
2018-03-17T09:18:21.858Z,1.67
2018-03-17T09:20:49.266Z,1.55
2018-03-17T09:23:16.690Z,1.79
2018-03-17T09:25:44.100Z,1.57
2018-03-17T09:28:11.512Z,1.69
2018-03-17T09:30:38.925Z,1.71
2018-03-17T09:33:06.338Z,1.66
2018-03-17T09:35:33.737Z,1.60
2018-03-17T09:38:01.154Z,1.67
2018-03-17T09:40:28.666Z,1.67
2018-03-17T09:42:56.082Z,1.72
2018-03-17T09:45:23.494Z,1.61
2018-03-17T09:47:50.917Z,1.74
2018-03-17T09:50:18.321Z,1.71
2018-03-17T09:52:45.738Z,1.79
2018-03-17T09:55:13.141Z,1.68
2018-03-17T09:57:40.587Z,1.59
2018-03-17T10:00:07.995Z,1.52
2018-03-17T10:02:35.407Z,1.60
2018-03-17T10:05:02.820Z,1.56
2018-03-17T10:07:30.230Z,1.41
2018-03-17T10:09:57.647Z,1.64
2018-03-17T10:12:25.055Z,1.69
2018-03-17T10:14:52.465Z,1.64
2018-03-17T10:17:19.862Z,1.63
2018-03-17T10:19:47.274Z,1.65
2018-03-17T10:22:14.678Z,1.79
2018-03-17T10:24:42.085Z,1.78
2018-03-17T10:27:09.493Z,1.88
2018-03-17T10:29:36.999Z,1.82
2018-03-17T10:32:04.426Z,1.88
2018-03-17T10:34:31.919Z,1.84
2018-03-17T10:36:59.314Z,2.03
2018-03-17T10:39:26.727Z,2.15
2018-03-17T10:41:54.140Z,2.00
2018-03-17T10:44:21.546Z,2.26
2018-03-17T10:46:51.307Z,2.38
2018-03-17T10:49:18.718Z,2.24
2018-03-17T10:51:46.277Z,2.21
2018-03-17T10:54:13.711Z,2.21
2018-03-17T10:56:41.098Z,2.61
2018-03-17T10:59:08.552Z,2.40
2018-03-17T11:01:41.935Z,2.41
2018-03-17T11:04:09.441Z,2.26
2018-03-17T11:06:36.850Z,2.13
2018-03-17T11:09:04.266Z,2.18
2018-03-17T11:11:31.686Z,2.06
2018-03-17T11:13:59.099Z,2.20
2018-03-17T11:16:26.502Z,2.00
2018-03-17T11:18:53.916Z,2.04
2018-03-17T11:21:21.337Z,2.01
2018-03-17T11:23:48.848Z,1.88
2018-03-17T11:26:16.293Z,1.73
2018-03-17T11:28:43.699Z,1.84
2018-03-17T11:31:11.112Z,1.92
2018-03-17T11:33:38.530Z,1.86
2018-03-17T11:36:05.938Z,1.79
2018-03-17T11:38:33.346Z,1.83
2018-03-17T11:41:00.777Z,1.83
2018-03-17T11:43:28.190Z,1.69
2018-03-17T11:45:55.598Z,1.76
2018-03-17T11:48:23.032Z,1.70
2018-03-17T11:50:50.582Z,1.74
2018-03-17T11:53:18.220Z,1.87
2018-03-17T11:55:45.801Z,1.92
2018-03-17T11:58:13.214Z,2.10
2018-03-17T12:00:40.619Z,1.89
2018-03-17T12:03:08.039Z,2.00
2018-03-17T12:05:35.446Z,2.14
2018-03-17T12:08:02.867Z,2.25
2018-03-17T12:10:30.271Z,2.24
2018-03-17T12:12:57.684Z,1.99
2018-03-17T12:15:25.091Z,1.90
2018-03-17T12:17:52.505Z,1.79
2018-03-17T12:20:19.932Z,1.96
2018-03-17T12:22:47.343Z,1.92
2018-03-17T12:25:14.760Z,1.94
2018-03-17T12:27:42.177Z,1.85
2018-03-17T12:30:09.591Z,1.87
2018-03-17T12:32:37.007Z,1.77
2018-03-17T12:35:04.412Z,1.93
2018-03-17T12:37:31.823Z,2.10
2018-03-17T12:39:59.221Z,1.97
2018-03-17T12:42:26.639Z,1.81
2018-03-17T12:44:54.043Z,1.74
2018-03-17T12:47:21.462Z,1.73
2018-03-17T12:49:48.868Z,1.80
2018-03-17T12:52:16.299Z,1.88
2018-03-17T12:54:43.705Z,1.80
2018-03-17T12:57:11.105Z,1.75
2018-03-17T12:59:38.529Z,1.94
2018-03-17T13:02:05.936Z,1.84
2018-03-17T13:04:33.354Z,1.90
2018-03-17T13:07:00.758Z,1.69
2018-03-17T13:09:28.174Z,1.78
2018-03-17T13:11:55.576Z,1.62
2018-03-17T13:14:22.991Z,1.62
2018-03-17T13:16:50.396Z,1.73
2018-03-17T13:19:29.542Z,1.73
2018-03-17T13:21:56.945Z,1.77
2018-03-17T13:24:24.358Z,1.79
2018-03-17T13:27:03.519Z,1.66
2018-03-17T13:29:30.934Z,1.60
2018-03-17T13:31:58.348Z,1.62
2018-03-17T13:34:25.759Z,1.64
2018-03-17T13:37:05.118Z,1.60
2018-03-17T13:39:32.538Z,1.52
2018-03-17T13:41:59.944Z,1.52
2018-03-17T13:44:27.355Z,1.58
2018-03-17T13:46:54.771Z,1.51
2018-03-17T13:49:22.195Z,1.52
2018-03-17T13:51:49.589Z,1.46
2018-03-17T13:54:17.011Z,1.38
2018-03-17T13:56:44.417Z,1.29
2018-03-17T13:59:11.830Z,1.30
2018-03-17T14:01:39.240Z,1.32
2018-03-17T14:04:06.668Z,1.26
2018-03-17T14:06:34.081Z,1.29
2018-03-17T14:09:01.489Z,1.40
2018-03-17T14:11:28.902Z,1.30
2018-03-17T14:13:56.336Z,1.25
2018-03-17T14:16:23.748Z,1.21
2018-03-17T14:18:51.177Z,1.24
2018-03-17T14:21:18.618Z,1.25
2018-03-17T14:23:46.067Z,1.15
2018-03-17T14:26:13.456Z,1.14
2018-03-17T14:28:40.867Z,1.16
2018-03-17T14:31:08.283Z,1.08
2018-03-17T14:33:35.694Z,0.98
2018-03-17T14:36:03.119Z,1.05
2018-03-17T14:38:30.538Z,1.11
2018-03-17T14:40:57.995Z,1.14
2018-03-17T14:43:25.414Z,1.20
2018-03-17T14:45:52.836Z,1.14
2018-03-17T14:51:20.126Z,1.05
2018-03-17T14:53:47.555Z,1.10
2018-03-17T14:56:14.975Z,1.15
2018-03-17T14:58:42.528Z,1.10
2018-03-17T15:01:11.587Z,0.99
2018-03-17T15:03:39.024Z,0.98
2018-03-17T15:06:06.458Z,1.01
2018-03-17T15:08:33.900Z,0.95
2018-03-17T15:11:07.579Z,0.93
2018-03-17T15:13:42.813Z,0.99
2018-03-17T15:16:12.371Z,0.98
2018-03-17T15:18:45.680Z,1.00
2018-03-17T15:21:13.144Z,1.05
2018-03-17T15:23:40.563Z,0.99
2018-03-17T15:26:08.003Z,0.97
2018-03-17T15:28:36.886Z,0.95
2018-03-17T15:31:04.352Z,0.97
2018-03-17T15:33:31.798Z,1.01
2018-03-17T15:35:59.271Z,1.00
2018-03-17T15:38:26.698Z,0.94
2018-03-17T15:40:54.148Z,0.91
2018-03-17T15:43:21.554Z,0.82
2018-03-17T15:45:49.008Z,0.87
2018-03-17T15:48:16.440Z,0.87
2018-03-17T15:50:43.855Z,0.81
2018-03-17T15:53:11.287Z,0.83
2018-03-17T15:55:38.723Z,0.84
2018-03-17T15:58:06.174Z,0.79
2018-03-17T16:00:33.595Z,0.76
2018-03-17T16:03:01.024Z,0.78
2018-03-17T16:05:28.443Z,0.76
2018-03-17T16:07:55.876Z,0.70
2018-03-17T16:10:23.331Z,0.64
2018-03-17T16:12:50.787Z,0.67
2018-03-17T16:15:18.351Z,0.62
2018-03-17T16:17:45.735Z,0.62
2018-03-17T16:20:13.163Z,0.64
2018-03-17T16:22:40.590Z,0.57
2018-03-17T16:25:08.158Z,0.57
2018-03-17T16:27:35.577Z,0.56
2018-03-17T16:30:03.004Z,0.58
2018-03-17T16:32:30.559Z,0.50
2018-03-17T16:34:57.982Z,0.54
2018-03-17T16:37:25.403Z,0.44
2018-03-17T16:39:52.854Z,0.50
2018-03-17T16:42:20.300Z,0.52
2018-03-17T16:44:47.711Z,0.49
2018-03-17T16:47:15.152Z,0.41
2018-03-17T16:49:42.558Z,0.34
2018-03-17T16:52:10.016Z,0.37
2018-03-17T16:54:37.431Z,0.43
2018-03-17T16:57:04.858Z,0.40
2018-03-17T16:59:32.308Z,0.31
2018-03-17T17:01:59.730Z,0.24
2018-03-17T17:04:27.151Z,0.23
2018-03-17T17:06:54.583Z,0.24
2018-03-17T17:09:22.016Z,0.17
2018-03-17T17:11:49.430Z,0.13
2018-03-17T17:14:16.858Z,0.18
2018-03-17T17:16:44.288Z,0.11
2018-03-17T17:19:11.702Z,0.09
2018-03-17T17:21:39.125Z,0.08
2018-03-17T17:24:06.558Z,0.05
2018-03-17T17:26:33.976Z,0.03
2018-03-17T17:29:01.396Z,0.02
2018-03-17T17:31:28.822Z,-0.09
2018-03-17T17:33:56.254Z,-0.09
2018-03-17T17:36:23.679Z,-0.11
2018-03-17T17:38:51.120Z,-0.08
2018-03-17T17:41:18.591Z,-0.05
2018-03-17T17:43:45.981Z,-0.10
2018-03-17T17:46:13.398Z,-0.18
2018-03-17T17:48:40.826Z,-0.24
2018-03-17T17:51:08.255Z,-0.21
2018-03-17T17:53:35.707Z,-0.26
2018-03-17T17:56:03.141Z,-0.28
2018-03-17T17:58:30.652Z,-0.23
2018-03-17T18:00:58.040Z,-0.16
2018-03-17T18:03:25.474Z,-0.29
2018-03-17T18:05:52.927Z,-0.23
2018-03-17T18:08:20.370Z,-0.30
2018-03-17T18:10:47.798Z,-0.36
2018-03-17T18:13:15.240Z,-0.39
2018-03-17T18:15:42.684Z,-0.37
2018-03-17T18:18:10.115Z,-0.43
2018-03-17T18:20:37.550Z,-0.39
2018-03-17T18:23:04.979Z,-0.44
2018-03-17T18:25:32.413Z,-0.42
2018-03-17T18:27:59.830Z,-0.45
2018-03-17T18:30:27.287Z,-0.42
2018-03-17T18:32:54.714Z,-0.46
2018-03-17T18:35:22.144Z,-0.51
2018-03-17T18:37:49.599Z,-0.57
2018-03-17T18:40:17.030Z,-0.50
2018-03-17T18:42:44.451Z,-0.51
2018-03-17T18:45:11.883Z,-0.55
2018-03-17T18:47:39.328Z,-0.51
2018-03-17T18:50:06.758Z,-0.54
2018-03-17T18:52:34.203Z,-0.54
2018-03-17T18:55:01.619Z,-0.62
2018-03-17T18:57:32.850Z,-0.63
2018-03-17T19:00:00.285Z,-0.63
2018-03-17T19:02:27.731Z,-0.72
2018-03-17T19:04:55.172Z,-0.71
2018-03-17T19:07:23.050Z,-0.73
2018-03-17T19:09:50.616Z,-0.72
2018-03-17T19:12:18.063Z,-0.72
2018-03-17T19:14:45.684Z,-0.77
2018-03-17T19:17:13.107Z,-0.76
2018-03-17T19:19:40.531Z,-0.78
2018-03-17T19:22:07.958Z,-0.87
2018-03-17T19:24:35.392Z,-0.83
2018-03-17T19:27:02.830Z,-0.85
2018-03-17T19:29:30.280Z,-0.89
2018-03-17T19:31:57.740Z,-0.84
2018-03-17T19:34:25.190Z,-0.84
2018-03-17T19:36:52.654Z,-0.90
2018-03-17T19:39:20.070Z,-0.93
2018-03-17T19:41:47.507Z,-0.87
2018-03-17T19:44:14.973Z,-0.89
2018-03-17T19:46:42.377Z,-0.95
2018-03-17T19:49:11.336Z,-0.92
2018-03-17T19:51:38.776Z,-0.96
2018-03-17T19:54:06.279Z,-0.97
2018-03-17T19:56:33.706Z,-0.91
2018-03-17T19:59:01.152Z,-0.96
2018-03-17T20:01:28.636Z,-0.97
2018-03-17T20:03:56.022Z,-1.00
2018-03-17T20:06:23.691Z,-1.02
2018-03-17T20:08:51.111Z,-1.07
2018-03-17T20:11:18.544Z,-1.03
2018-03-17T20:13:45.983Z,-1.13
2018-03-17T20:16:13.402Z,-1.12
2018-03-17T20:18:40.830Z,-1.13
2018-03-17T20:21:08.271Z,-1.13
2018-03-17T20:23:35.713Z,-1.24
2018-03-17T20:26:03.141Z,-1.15
2018-03-17T20:28:30.707Z,-1.20
2018-03-17T20:30:58.126Z,-1.18
2018-03-17T20:33:25.571Z,-1.14
2018-03-17T20:35:53.011Z,-1.13
2018-03-17T20:38:20.443Z,-1.20
2018-03-17T20:40:47.867Z,-1.21
2018-03-17T20:43:15.311Z,-1.20
2018-03-17T20:45:42.752Z,-1.22
2018-03-17T20:48:10.200Z,-1.23
2018-03-17T20:50:40.124Z,-1.24
2018-03-17T20:53:07.575Z,-1.23
2018-03-17T20:55:35.004Z,-1.21
2018-03-17T20:58:02.500Z,-1.21
2018-03-17T21:00:29.909Z,-1.26
2018-03-17T21:02:57.386Z,-1.24
2018-03-17T21:05:24.828Z,-1.20
2018-03-17T21:07:52.294Z,-1.23
2018-03-17T21:10:19.744Z,-1.20
2018-03-17T21:12:50.904Z,-1.22
2018-03-17T21:15:30.830Z,-1.24
2018-03-17T21:17:58.287Z,-1.24
2018-03-17T21:20:25.744Z,-1.29
2018-03-17T21:22:53.186Z,-1.43
2018-03-17T21:25:23.427Z,-1.54
2018-03-17T21:27:56.229Z,-1.67
2018-03-17T21:30:27.325Z,-1.77
2018-03-17T21:32:54.859Z,-1.84
2018-03-17T21:35:22.586Z,-1.92
2018-03-17T21:37:50.032Z,-1.97
2018-03-17T21:40:17.460Z,-2.04
2018-03-17T21:42:47.234Z,-2.06
2018-03-17T21:45:14.690Z,-2.06
2018-03-17T21:47:42.119Z,-2.06
2018-03-17T21:50:09.540Z,-2.17
2018-03-17T21:52:36.961Z,-2.13
2018-03-17T21:55:04.404Z,-2.24
2018-03-17T21:57:31.929Z,-2.24
2018-03-17T22:02:37.440Z,-2.21
2018-03-17T22:05:04.875Z,-2.21
2018-03-17T22:07:32.282Z,-2.30
2018-03-17T22:09:59.698Z,-2.31
2018-03-17T22:12:27.121Z,-2.29
2018-03-17T22:14:54.547Z,-2.31
2018-03-17T22:17:21.956Z,-2.28
2018-03-17T22:19:49.377Z,-2.35
2018-03-17T22:22:16.782Z,-2.30
2018-03-17T22:24:44.206Z,-2.31
2018-03-17T22:27:11.622Z,-2.33
2018-03-17T22:29:39.042Z,-2.34
2018-03-17T22:32:06.443Z,-2.35
2018-03-17T22:34:33.854Z,-2.41
2018-03-17T22:37:01.262Z,-2.42
2018-03-17T22:39:28.695Z,-2.41
2018-03-17T22:41:56.100Z,-2.48
2018-03-17T22:44:23.513Z,-2.45
2018-03-17T22:46:50.939Z,-2.55
2018-03-17T22:49:18.361Z,-2.51
2018-03-17T22:51:45.795Z,-2.52
2018-03-17T22:54:13.206Z,-2.52
2018-03-17T22:56:40.619Z,-2.49
2018-03-17T22:59:08.028Z,-2.55
2018-03-17T23:01:35.458Z,-2.55
2018-03-17T23:04:02.868Z,-2.62
2018-03-17T23:06:30.290Z,-2.57
2018-03-17T23:08:57.756Z,-2.64
2018-03-17T23:11:25.170Z,-2.66
2018-03-17T23:13:52.573Z,-2.64
2018-03-17T23:16:19.994Z,-2.67
2018-03-17T23:18:47.578Z,-2.69
2018-03-17T23:21:14.997Z,-2.77
2018-03-17T23:23:42.416Z,-2.73
2018-03-17T23:26:09.821Z,-2.70
2018-03-17T23:28:37.237Z,-2.74
2018-03-17T23:31:04.655Z,-2.74
2018-03-17T23:33:32.087Z,-2.80
2018-03-17T23:35:59.500Z,-2.82
2018-03-17T23:38:26.914Z,-2.79
2018-03-17T23:40:54.325Z,-2.78
2018-03-17T23:43:21.746Z,-2.75
2018-03-17T23:45:49.162Z,-2.77
2018-03-17T23:48:16.582Z,-2.78
2018-03-17T23:50:43.998Z,-2.77
2018-03-17T23:53:11.417Z,-2.75
2018-03-17T23:55:38.836Z,-2.87
2018-03-17T23:58:06.254Z,-2.88
